createdAt,value
2023-02-02T00:02:02.425Z,98943.78
2023-02-02T00:04:33.235Z,98953.50
2023-02-02T00:07:03.036Z,98946.09
2023-02-02T00:09:33.230Z,98951.72
2023-02-02T00:12:03.962Z,98940.50
2023-02-02T00:14:33.890Z,98944.94
2023-02-02T00:17:04.291Z,98946.94
2023-02-02T00:19:33.657Z,98937.06
2023-02-02T00:22:02.819Z,98942.81
2023-02-02T00:24:32.022Z,98937.38
2023-02-02T00:27:01.950Z,98934.75
2023-02-02T00:29:33.355Z,98936.88
2023-02-02T00:32:02.420Z,98935.88
2023-02-02T00:34:31.091Z,98927.81
2023-02-02T00:37:00.232Z,98942.63
2023-02-02T00:39:30.922Z,98942.00
2023-02-02T00:41:59.964Z,98933.41
2023-02-02T00:44:57.696Z,98938.38
2023-02-02T00:47:29.834Z,98941.47
2023-02-02T00:49:58.543Z,98942.59
2023-02-02T00:52:27.644Z,98934.22
2023-02-02T00:54:56.724Z,98931.44
2023-02-02T00:57:26.041Z,98935.72
2023-02-02T00:59:55.302Z,98928.97
2023-02-02T01:02:24.533Z,98936.97
2023-02-02T01:04:54.848Z,98935.22
2023-02-02T01:07:23.978Z,98930.25
2023-02-02T01:09:52.970Z,98925.84
2023-02-02T01:12:22.129Z,98932.09
2023-02-02T01:14:51.562Z,98926.50
2023-02-02T01:17:20.863Z,98920.72
2023-02-02T01:19:49.737Z,98921.53
2023-02-02T01:22:20.280Z,98918.41
2023-02-02T01:24:49.482Z,98918.56
2023-02-02T01:27:18.785Z,98920.88
2023-02-02T01:29:47.855Z,98913.31
2023-02-02T01:32:17.069Z,98916.75
2023-02-02T01:34:45.719Z,98908.22
2023-02-02T01:37:14.714Z,98911.66
2023-02-02T01:39:45.593Z,98915.78
2023-02-02T01:42:16.589Z,98913.63
2023-02-02T01:45:15.020Z,98911.66
2023-02-02T01:47:45.857Z,98919.22
2023-02-02T01:50:17.554Z,98927.56
2023-02-02T01:52:48.632Z,98932.97
2023-02-02T01:55:22.337Z,98925.63
2023-02-02T01:57:54.690Z,98932.97
2023-02-02T02:00:27.853Z,98928.22
2023-02-02T02:02:59.120Z,98932.34
2023-02-02T02:05:30.758Z,98933.47
2023-02-02T02:08:06.291Z,98930.06
2023-02-02T02:10:36.965Z,98929.78
2023-02-02T02:13:06.257Z,98933.97
2023-02-02T02:15:58.773Z,98930.78
2023-02-02T02:18:34.125Z,98931.25
2023-02-02T02:21:51.270Z,98932.91
2023-02-02T02:25:15.535Z,98935.81
2023-02-02T02:28:14.867Z,98932.16
2023-02-02T02:31:21.250Z,98923.84
2023-02-02T02:33:56.025Z,98933.84
2023-02-02T02:36:32.147Z,98936.97
2023-02-02T02:39:08.623Z,98922.94
2023-02-02T02:41:41.568Z,98928.31
2023-02-02T02:44:13.067Z,98927.50
2023-02-02T02:46:41.830Z,98932.25
2023-02-02T02:49:13.504Z,98934.03
2023-02-02T02:51:47.845Z,98928.94
2023-02-02T02:54:29.721Z,98929.63
2023-02-02T02:57:08.790Z,98933.91
2023-02-02T02:59:46.112Z,98931.44
2023-02-02T03:02:33.754Z,98933.41
2023-02-02T03:05:11.005Z,98936.13
2023-02-02T03:07:43.809Z,98938.31
2023-02-02T03:10:15.103Z,98937.88
2023-02-02T03:12:47.996Z,98935.22
2023-02-02T03:15:19.298Z,98935.19
2023-02-02T03:17:49.321Z,98941.22
2023-02-02T03:20:20.525Z,98936.00
2023-02-02T03:22:49.164Z,98941.31
2023-02-02T03:25:18.275Z,98948.97
2023-02-02T03:27:47.207Z,98944.94
2023-02-02T03:30:16.442Z,98935.63
2023-02-02T03:32:45.489Z,98935.03
2023-02-02T03:35:14.644Z,98943.94
2023-02-02T03:37:44.811Z,98942.47
2023-02-02T03:40:14.361Z,98938.69
2023-02-02T03:42:43.456Z,98943.63
2023-02-02T03:45:13.205Z,98947.94
2023-02-02T03:47:42.277Z,98943.63
2023-02-02T03:50:12.232Z,98936.72
2023-02-02T03:52:41.002Z,98947.91
2023-02-02T03:55:11.632Z,98941.66
2023-02-02T03:57:40.650Z,98940.81
2023-02-02T04:00:10.996Z,98938.84
2023-02-02T04:02:44.363Z,98940.34
2023-02-02T04:05:13.452Z,98922.53
2023-02-02T04:07:42.226Z,98937.50
2023-02-02T04:10:13.477Z,98937.69
2023-02-02T04:12:42.490Z,98937.81
2023-02-02T04:15:12.354Z,98929.78
2023-02-02T04:17:41.482Z,98930.94
2023-02-02T04:20:11.882Z,98930.78
2023-02-02T04:22:40.601Z,98934.34
2023-02-02T04:25:10.146Z,98933.44
2023-02-02T04:27:40.536Z,98922.69
2023-02-02T04:30:10.359Z,98939.84
2023-02-02T04:32:39.502Z,98942.06
2023-02-02T04:35:09.566Z,98928.44
2023-02-02T04:37:38.603Z,98939.94
2023-02-02T04:40:08.783Z,98937.09
2023-02-02T04:42:37.442Z,98948.25
2023-02-02T04:45:09.152Z,98942.91
2023-02-02T04:47:38.131Z,98943.91
2023-02-02T04:50:08.190Z,98939.38
2023-02-02T04:52:37.320Z,98946.06
2023-02-02T04:55:06.717Z,98932.06
2023-02-02T04:57:35.770Z,98937.34
2023-02-02T05:00:05.289Z,98937.97
2023-02-02T05:02:38.430Z,98939.84
2023-02-02T05:05:10.599Z,98941.06
2023-02-02T05:07:40.253Z,98947.25
2023-02-02T05:10:11.096Z,98949.72
2023-02-02T05:12:40.238Z,98940.50
2023-02-02T05:15:10.463Z,98944.59
2023-02-02T05:17:40.674Z,98936.53
2023-02-02T05:20:11.102Z,98937.22
2023-02-02T05:22:39.976Z,98942.00
2023-02-02T05:25:09.992Z,98933.59
2023-02-02T05:27:39.080Z,98932.25
2023-02-02T05:30:09.369Z,98928.81
2023-02-02T05:32:38.055Z,98939.84
2023-02-02T05:35:11.211Z,98935.69
2023-02-02T05:37:39.847Z,98927.47
2023-02-02T05:40:10.258Z,98933.72
2023-02-02T05:42:39.356Z,98930.44
2023-02-02T05:45:09.342Z,98925.66
2023-02-02T05:47:38.501Z,98925.47
2023-02-02T05:50:09.737Z,98925.44
2023-02-02T05:52:39.290Z,98938.03
2023-02-02T05:55:09.847Z,98928.16
2023-02-02T05:57:38.890Z,98929.97
2023-02-02T06:00:09.055Z,98937.00
2023-02-02T06:02:40.986Z,98927.97
2023-02-02T06:05:11.812Z,98928.47
2023-02-02T06:07:41.271Z,98936.69
2023-02-02T06:10:11.087Z,98942.81
2023-02-02T06:12:40.160Z,98931.28
2023-02-02T06:15:10.258Z,98928.41
2023-02-02T06:17:39.664Z,98929.47
2023-02-02T06:20:11.234Z,98934.88
2023-02-02T06:22:40.010Z,98935.03
2023-02-02T06:25:09.647Z,98930.06
2023-02-02T06:27:38.818Z,98941.63
2023-02-02T06:30:08.727Z,98928.09
2023-02-02T06:32:37.838Z,98930.59
2023-02-02T06:35:07.963Z,98931.41
2023-02-02T06:37:39.185Z,98923.94
2023-02-02T06:40:09.630Z,98926.50
2023-02-02T06:42:38.675Z,98923.84
2023-02-02T06:45:08.709Z,98925.69
2023-02-02T06:47:37.744Z,98927.78
2023-02-02T06:50:06.994Z,98915.41
2023-02-02T06:52:35.639Z,98915.91
2023-02-02T06:55:06.501Z,98908.63
2023-02-02T06:57:35.522Z,98908.16
2023-02-02T07:00:05.703Z,98911.28
2023-02-02T07:02:35.740Z,98915.75
2023-02-02T07:05:05.795Z,98914.31
2023-02-02T07:07:34.896Z,98907.34
2023-02-02T07:10:05.707Z,98909.69
2023-02-02T07:12:34.816Z,98917.53
2023-02-02T07:15:04.025Z,98915.28
2023-02-02T07:17:33.095Z,98908.72
2023-02-02T07:20:02.125Z,98903.41
2023-02-02T07:22:30.717Z,98906.53
2023-02-02T07:24:59.769Z,98904.91
2023-02-02T07:27:30.512Z,98901.47
2023-02-02T07:29:59.529Z,98905.09
2023-02-02T07:32:28.601Z,98912.31
2023-02-02T07:34:57.206Z,98906.84
2023-02-02T07:37:26.327Z,98911.97
2023-02-02T07:39:55.311Z,98908.66
2023-02-02T07:42:25.610Z,98916.75
2023-02-02T07:44:55.715Z,98913.91
2023-02-02T07:47:27.530Z,98907.88
2023-02-02T07:49:58.449Z,98926.09
2023-02-02T07:52:27.436Z,98920.63
2023-02-02T07:55:12.571Z,98917.75
2023-02-02T07:57:43.348Z,98916.09
2023-02-02T08:00:15.258Z,98919.44
2023-02-02T08:02:44.371Z,98935.81
2023-02-02T08:05:13.468Z,98935.34
2023-02-02T08:07:42.204Z,98925.91
2023-02-02T08:10:12.140Z,98922.34
2023-02-02T08:12:41.158Z,98923.28
2023-02-02T08:15:12.330Z,98925.66
2023-02-02T08:17:46.689Z,98927.44
2023-02-02T08:20:15.894Z,98928.66
2023-02-02T08:22:44.608Z,98936.47
2023-02-02T08:25:13.660Z,98936.06
2023-02-02T08:27:42.654Z,98927.66
2023-02-02T08:30:13.662Z,98930.44
2023-02-02T08:32:44.179Z,98933.41
2023-02-02T08:35:13.342Z,98936.22
2023-02-02T08:37:42.318Z,98929.13
2023-02-02T08:40:12.834Z,98936.72
2023-02-02T08:42:42.112Z,98943.97
2023-02-02T08:46:13.141Z,98941.13
2023-02-02T08:48:11.612Z,98946.22
2023-02-02T08:50:41.456Z,98949.88
2023-02-02T08:53:10.636Z,98939.34
2023-02-02T08:55:39.378Z,98957.25
2023-02-02T08:58:08.361Z,98950.84
2023-02-02T09:00:38.589Z,98952.03
2023-02-02T09:03:09.162Z,98955.16
2023-02-02T09:05:39.456Z,98950.19
2023-02-02T09:08:08.135Z,98950.31
2023-02-02T09:10:37.168Z,98947.88
2023-02-02T09:13:06.374Z,98954.63
2023-02-02T09:15:35.401Z,98950.31
2023-02-02T09:18:04.440Z,98951.47
2023-02-02T09:20:35.291Z,98953.22
2023-02-02T09:23:05.457Z,98956.13
2023-02-02T09:25:34.118Z,98958.97
2023-02-02T09:28:03.167Z,98960.53
2023-02-02T09:30:32.286Z,98965.91
2023-02-02T09:33:01.331Z,98970.59
2023-02-02T09:35:30.329Z,98971.97
2023-02-02T09:38:00.791Z,98971.97
2023-02-02T09:40:30.603Z,98969.97
2023-02-02T09:43:06.233Z,98978.47
2023-02-02T09:45:42.467Z,98984.19
2023-02-02T09:48:21.655Z,98990.09
2023-02-02T09:50:53.680Z,98993.72
2023-02-02T09:53:29.011Z,98995.88
2023-02-02T09:55:59.152Z,98994.53
2023-02-02T09:58:30.262Z,99018.06
2023-02-02T10:01:04.772Z,99012.59
2023-02-02T10:03:38.786Z,99016.97
2023-02-02T10:06:15.988Z,99024.63
2023-02-02T10:08:50.371Z,99025.63
2023-02-02T10:11:32.405Z,99037.97
2023-02-02T10:14:04.591Z,99035.88
2023-02-02T10:16:34.303Z,99037.13
2023-02-02T10:19:05.267Z,99046.13
2023-02-02T10:21:37.166Z,99041.00
2023-02-02T10:24:14.921Z,99034.38
2023-02-02T10:26:47.822Z,99042.41
2023-02-02T10:29:25.155Z,99049.22
2023-02-02T10:32:02.499Z,99046.75
2023-02-02T10:34:35.089Z,99050.19
2023-02-02T10:37:14.694Z,99047.41
2023-02-02T10:39:59.070Z,99054.66
2023-02-02T10:42:36.304Z,99063.53
2023-02-02T10:45:09.757Z,99063.72
2023-02-02T10:47:39.395Z,99077.31
2023-02-02T10:50:27.128Z,99077.78
2023-02-02T10:53:00.932Z,99086.44
2023-02-02T10:55:38.358Z,99091.38
2023-02-02T10:58:14.776Z,99093.66
2023-02-02T11:00:50.783Z,99099.34
2023-02-02T11:03:23.549Z,99106.56
2023-02-02T11:06:09.871Z,99107.56
2023-02-02T11:08:41.599Z,99115.44
2023-02-02T11:11:14.379Z,99118.09
2023-02-02T11:13:46.620Z,99122.88
2023-02-02T11:16:23.824Z,99133.69
2023-02-02T11:18:52.942Z,99133.41
2023-02-02T11:21:25.150Z,99142.22
2023-02-02T11:23:56.270Z,99133.88
2023-02-02T11:26:27.380Z,99145.38
2023-02-02T11:28:58.334Z,99144.06
2023-02-02T11:31:33.594Z,99140.81
2023-02-02T11:34:20.843Z,99139.81
2023-02-02T11:37:17.069Z,99153.09
2023-02-02T11:39:46.228Z,99153.78
2023-02-02T11:42:19.055Z,99155.09
2023-02-02T11:44:50.302Z,99153.44
2023-02-02T11:47:22.188Z,99156.56
2023-02-02T11:49:52.397Z,99165.31
2023-02-02T11:52:24.330Z,99173.25
2023-02-02T11:54:55.518Z,99170.75
2023-02-02T11:57:27.529Z,99176.34
2023-02-02T12:00:13.259Z,99182.81
2023-02-02T12:02:47.743Z,99183.72
2023-02-02T12:05:35.178Z,99187.88
2023-02-02T12:08:05.156Z,99194.13
2023-02-02T12:10:36.768Z,99199.31
2023-02-02T12:13:11.521Z,99198.78
2023-02-02T12:15:49.312Z,99202.22
2023-02-02T12:18:28.491Z,99203.84
2023-02-02T12:21:04.920Z,99210.59
2023-02-02T12:23:48.417Z,99222.91
2023-02-02T12:26:22.088Z,99220.50
2023-02-02T12:29:26.018Z,99232.53
2023-02-02T12:32:05.998Z,99227.59
2023-02-02T12:34:44.024Z,99233.72
2023-02-02T12:37:20.595Z,99240.34
2023-02-02T12:39:59.380Z,99244.09
2023-02-02T12:42:42.338Z,99246.00
2023-02-02T12:45:44.128Z,99252.38
2023-02-02T12:48:24.971Z,99263.94
2023-02-02T12:51:02.223Z,99266.13
2023-02-02T12:53:42.718Z,99276.06
2023-02-02T12:56:20.941Z,99281.25
2023-02-02T12:58:56.532Z,99287.84
2023-02-02T13:01:40.665Z,99289.47
2023-02-02T13:04:39.834Z,99285.94
2023-02-02T13:07:32.634Z,99307.44
2023-02-02T13:10:17.337Z,99305.00
2023-02-02T13:12:52.219Z,99330.13
2023-02-02T13:15:24.076Z,99331.91
2023-02-02T13:17:55.683Z,99340.88
2023-02-02T13:20:35.948Z,99344.38
2023-02-02T13:23:08.810Z,99356.59
2023-02-02T13:25:43.883Z,99353.91
2023-02-02T13:28:20.136Z,99345.69
2023-02-02T13:30:50.582Z,99355.84
2023-02-02T13:33:23.178Z,99369.50
2023-02-02T13:35:56.701Z,99384.44
2023-02-02T13:38:27.490Z,99386.69
2023-02-02T13:40:57.459Z,99393.63
2023-02-02T13:43:35.868Z,99404.56
2023-02-02T13:46:12.013Z,99401.94
2023-02-02T13:48:46.118Z,99407.50
2023-02-02T13:51:43.071Z,99405.13
2023-02-02T13:54:45.583Z,99415.28
2023-02-02T13:57:32.391Z,99415.72
2023-02-02T14:00:04.919Z,99410.94
2023-02-02T14:02:37.115Z,99414.19
2023-02-02T14:05:07.689Z,99419.31
2023-02-02T14:07:43.272Z,99424.34
2023-02-02T14:10:25.117Z,99431.31
2023-02-02T14:12:54.547Z,99434.94
2023-02-02T14:15:39.234Z,99439.53
2023-02-02T14:18:08.367Z,99442.56
2023-02-02T14:20:48.603Z,99453.47
2023-02-02T14:23:56.435Z,99461.75
2023-02-02T14:26:46.363Z,99469.00
2023-02-02T14:29:34.930Z,99467.63
2023-02-02T14:32:06.831Z,99482.38
2023-02-02T14:34:36.946Z,99487.88
2023-02-02T14:37:32.454Z,99496.56
2023-02-02T14:40:12.599Z,99497.44
2023-02-02T14:43:08.571Z,99504.06
2023-02-02T14:45:39.241Z,99519.75
2023-02-02T14:48:12.888Z,99515.34
2023-02-02T14:50:49.389Z,99525.34
2023-02-02T14:53:24.341Z,99530.78
2023-02-02T14:55:58.400Z,99540.44
2023-02-02T14:58:31.023Z,99542.59
2023-02-02T15:01:08.896Z,99554.38
2023-02-02T15:03:48.465Z,99558.00
2023-02-02T15:06:31.845Z,99561.03
2023-02-02T15:09:29.440Z,99576.81
2023-02-02T15:12:19.327Z,99584.41
2023-02-02T15:14:51.871Z,99601.09
2023-02-02T15:17:28.482Z,99594.72
2023-02-02T15:20:06.827Z,99606.97
2023-02-02T15:22:38.940Z,99609.59
2023-02-02T15:25:15.494Z,99620.44
2023-02-02T15:27:56.470Z,99629.41
2023-02-02T15:30:28.428Z,99658.69
2023-02-02T15:32:57.679Z,99656.03
2023-02-02T15:35:30.258Z,99670.59
2023-02-02T15:38:01.262Z,99668.59
2023-02-02T15:40:32.283Z,99672.41
2023-02-02T15:43:05.711Z,99679.59
2023-02-02T15:45:43.611Z,99693.53
2023-02-02T15:48:26.960Z,99689.47
2023-02-02T15:50:56.087Z,99702.28
2023-02-02T15:53:27.805Z,99699.84
2023-02-02T15:55:58.219Z,99708.69
2023-02-02T15:58:33.464Z,99720.00
2023-02-02T16:01:07.162Z,99719.88
2023-02-02T16:03:42.105Z,99727.50
2023-02-02T16:06:11.356Z,99751.66
2023-02-02T16:08:41.550Z,99754.41
2023-02-02T16:11:12.512Z,99765.50
2023-02-02T16:13:44.298Z,99775.66
2023-02-02T16:16:24.455Z,99778.41
2023-02-02T16:19:06.375Z,99783.41
2023-02-02T16:21:36.931Z,99785.19
2023-02-02T16:24:11.003Z,99792.97
2023-02-02T16:26:39.970Z,99793.00
2023-02-02T16:29:17.104Z,99794.63
2023-02-02T16:31:46.534Z,99804.03
2023-02-02T16:34:19.575Z,99810.50
2023-02-02T16:37:06.286Z,99814.34
2023-02-02T16:39:35.510Z,99821.00
2023-02-02T16:42:11.883Z,99823.63
2023-02-02T16:44:44.237Z,99835.41
2023-02-02T16:47:34.638Z,99835.41
2023-02-02T16:50:30.719Z,99841.16
2023-02-02T16:53:04.488Z,99849.09
2023-02-02T16:55:49.544Z,99854.44
2023-02-02T16:58:21.489Z,99875.09
2023-02-02T17:01:13.712Z,99877.16
2023-02-02T17:03:50.336Z,99870.59
2023-02-02T17:06:21.047Z,99870.81
2023-02-02T17:08:50.212Z,99886.94
2023-02-02T17:11:25.581Z,99879.78
2023-02-02T17:13:55.226Z,99886.56
2023-02-02T17:16:27.371Z,99891.28
2023-02-02T17:18:56.520Z,99898.09
2023-02-02T17:21:27.082Z,99903.09
2023-02-02T17:23:56.525Z,99910.44
2023-02-02T17:26:25.554Z,99918.19
2023-02-02T17:28:56.824Z,99922.66
2023-02-02T17:31:27.446Z,99926.78
2023-02-02T17:33:56.583Z,99940.16
2023-02-02T17:36:25.526Z,99938.41
2023-02-02T17:38:54.524Z,99943.56
2023-02-02T17:41:23.510Z,99945.66
2023-02-02T17:43:52.180Z,99948.28
2023-02-02T17:46:21.180Z,99948.25
2023-02-02T17:48:53.135Z,99955.88
2023-02-02T17:51:23.399Z,99960.56
2023-02-02T17:53:52.230Z,99973.84
2023-02-02T17:56:22.171Z,99973.16
2023-02-02T17:58:50.765Z,99979.00
2023-02-02T18:01:19.800Z,99990.78
2023-02-02T18:03:49.193Z,99993.72
2023-02-02T18:06:19.754Z,99999.91
2023-02-02T18:08:48.792Z,100005.72
2023-02-02T18:11:18.791Z,100005.69
2023-02-02T18:13:47.557Z,100017.97
2023-02-02T18:16:16.715Z,100026.84
2023-02-02T18:18:45.921Z,100030.47
2023-02-02T18:21:15.313Z,100036.34
2023-02-02T18:23:48.905Z,100043.81
2023-02-02T18:26:20.488Z,100047.13
2023-02-02T18:28:49.851Z,100041.16
2023-02-02T18:31:20.588Z,100058.00
2023-02-02T18:33:49.789Z,100054.31
2023-02-02T18:36:20.983Z,100062.63
2023-02-02T18:38:53.868Z,100068.41
2023-02-02T18:41:23.399Z,100066.00
2023-02-02T18:43:55.404Z,100068.75
2023-02-02T18:46:24.620Z,100072.69
2023-02-02T18:48:53.696Z,100077.34
2023-02-02T18:51:23.730Z,100076.50
2023-02-02T18:53:59.787Z,100079.69
2023-02-02T18:56:29.701Z,100086.56
2023-02-02T18:58:59.858Z,100097.50
2023-02-02T19:01:28.580Z,100105.03
2023-02-02T19:04:02.361Z,100104.72
2023-02-02T19:06:48.876Z,100115.09
2023-02-02T19:09:19.399Z,100107.69
2023-02-02T19:11:50.152Z,100118.25
2023-02-02T19:14:20.954Z,100124.41
2023-02-02T19:16:50.110Z,100136.66
2023-02-02T19:19:24.309Z,100136.69
2023-02-02T19:21:56.195Z,100156.41
2023-02-02T19:24:28.060Z,100153.44
2023-02-02T19:26:57.429Z,100158.75
2023-02-02T19:29:27.526Z,100162.44
2023-02-02T19:32:00.725Z,100170.59
2023-02-02T19:34:29.866Z,100173.47
2023-02-02T19:36:59.741Z,100187.81
2023-02-02T19:39:31.981Z,100192.69
2023-02-02T19:42:02.185Z,100196.81
2023-02-02T19:44:31.536Z,100203.53
2023-02-02T19:47:01.442Z,100210.06
2023-02-02T19:49:33.180Z,100216.59
2023-02-02T19:52:04.050Z,100216.47
2023-02-02T19:54:38.430Z,100220.91
2023-02-02T19:57:16.063Z,100220.31
2023-02-02T19:59:47.813Z,100225.38
2023-02-02T20:02:38.573Z,100238.84
2023-02-02T20:05:16.769Z,100250.03
2023-02-02T20:07:45.752Z,100243.50
2023-02-02T20:10:21.561Z,100251.31
2023-02-02T20:12:51.383Z,100261.31
2023-02-02T20:15:29.972Z,100273.34
2023-02-02T20:17:59.947Z,100278.03
2023-02-02T20:20:30.805Z,100284.81
2023-02-02T20:22:59.899Z,100289.91
2023-02-02T20:25:32.416Z,100285.22
2023-02-02T20:28:08.822Z,100287.84
2023-02-02T20:30:37.865Z,100293.94
2023-02-02T20:33:21.508Z,100317.59
2023-02-02T20:35:50.571Z,100312.88
2023-02-02T20:38:22.932Z,100318.31
2023-02-02T20:40:53.408Z,100326.22
2023-02-02T20:43:22.804Z,100330.28
2023-02-02T20:45:52.083Z,100337.69
2023-02-02T20:48:21.130Z,100321.22
2023-02-02T20:50:50.117Z,100324.69
2023-02-02T20:53:19.231Z,100327.78
2023-02-02T20:55:47.771Z,100336.38
2023-02-02T20:58:20.731Z,100342.63
2023-02-02T21:00:49.692Z,100347.53
2023-02-02T21:03:18.699Z,100352.78
2023-02-02T21:05:47.985Z,100358.41
2023-02-02T21:08:17.078Z,100360.16
2023-02-02T21:10:45.661Z,100364.09
2023-02-02T21:13:14.693Z,100365.78
2023-02-02T21:15:45.142Z,100369.78
2023-02-02T21:18:14.319Z,100369.16
2023-02-02T21:20:43.317Z,100384.50
2023-02-02T21:23:12.296Z,100379.31
2023-02-02T21:25:41.012Z,100385.69
2023-02-02T21:28:09.963Z,100396.25
2023-02-02T21:30:39.056Z,100401.59
2023-02-02T21:33:09.533Z,100406.31
2023-02-02T21:35:38.545Z,100406.44
2023-02-02T21:38:12.333Z,100406.59
2023-02-02T21:40:41.627Z,100412.41
2023-02-02T21:43:16.415Z,100413.81
2023-02-02T21:45:46.225Z,100427.63
2023-02-02T21:48:31.377Z,100431.09
2023-02-02T21:51:02.613Z,100431.63
2023-02-02T21:53:34.020Z,100431.06
2023-02-02T21:56:03.203Z,100440.53
2023-02-02T21:58:35.252Z,100445.34
2023-02-02T22:01:16.270Z,100455.09
2023-02-02T22:03:49.721Z,100458.34
2023-02-02T22:06:30.108Z,100465.44
2023-02-02T22:09:02.460Z,100462.13
2023-02-02T22:11:37.157Z,100459.00
2023-02-02T22:14:16.759Z,100459.56
2023-02-02T22:16:48.804Z,100459.09
2023-02-02T22:19:39.453Z,100461.63
2023-02-02T22:22:16.199Z,100469.59
2023-02-02T22:24:46.343Z,100480.78
2023-02-02T22:27:22.334Z,100477.59
2023-02-02T22:29:51.530Z,100477.59
2023-02-02T22:32:20.521Z,100469.63
2023-02-02T22:34:50.920Z,100482.34
2023-02-02T22:37:19.895Z,100474.34
2023-02-02T22:39:48.863Z,100474.13
2023-02-02T22:42:18.521Z,100482.91
2023-02-02T22:44:48.318Z,100490.78
2023-02-02T22:47:17.325Z,100495.91
2023-02-02T22:49:45.971Z,100493.13
2023-02-02T22:52:16.349Z,100498.44
2023-02-02T22:54:45.294Z,100513.28
2023-02-02T22:57:14.393Z,100516.66
2023-02-02T22:59:43.412Z,100508.78
2023-02-02T23:02:12.386Z,100519.16
2023-02-02T23:04:40.975Z,100520.50
2023-02-02T23:07:10.042Z,100521.44
2023-02-02T23:09:40.552Z,100526.28
2023-02-02T23:12:09.992Z,100532.72
2023-02-02T23:14:38.917Z,100539.53
2023-02-02T23:17:08.333Z,100538.06
2023-02-02T23:19:36.939Z,100535.06
2023-02-02T23:22:05.902Z,100548.56
2023-02-02T23:25:14.218Z,100556.50
2023-02-02T23:28:23.370Z,100550.78
2023-02-02T23:31:33.704Z,100561.69
2023-02-02T23:34:43.007Z,100552.13
2023-02-02T23:37:52.392Z,100573.53
2023-02-02T23:41:03.145Z,100568.78
2023-02-02T23:44:12.434Z,100573.91
2023-02-02T23:47:21.758Z,100582.31
2023-02-02T23:50:31.040Z,100574.81
2023-02-02T23:53:40.455Z,100575.44
2023-02-02T23:56:52.018Z,100586.78
